Dunbar, Kentucky
Current Conditions -  °F | °C
As of 2:53 AM on Friday 19 Dec 2014 (Local Time) from KBWG Reporting Station
Overcast Overcast  
Wind Chill: 34°   Ceiling: 6000
Heat Index: 34°   Visibility: 8mi
Dew Point: 26°   Wind: 3mph
Humidity: 73%   Direction: 330°NNW
Pressure: 30.26"   Gusts: NA
Location:  37.16°N, 86.76°W
Report Text: KBWG 190853Z AUTO 33003KT 8SM OVC060 01/M03 A3026 RMK AO2 SLP252 T00111033 53002
Loading
Personal Weather Stations






























Interactive Weather Map New forecast layout! Learn more

10-Day Weather Forecast

Advertisements
Track Severe Weather on mobile